images/hfc/images/print_logo.png
Drucken
[Quelle: ADDS]
METAR
EDDW 191520Z 22016KT CAVOK 27/14 Q1013 TEMPO 22015G25KT =
TAF
EDDW 191100Z 1912/2012 20010KT CAVOK PROB30 TEMPO 1912/1917 22015G25KT BECMG 1917/1919 22005KT BECMG 2008/2010 21010KT TEMPO 2010/2012 22015G25KT =
BCMT / ECET: 04:29 / 18:07 UTC (EDDW 2018-09-19)

printlogo=no